Time;durP1;ratioP1;P1;durP2;ratioP2;P2;SDS_P1;SDS_P2;PMS_P1;PMS_P2;Temp;Humidity;BMP_temperature;BMP_pressure;BME280_temperature;BME280_humidity;BME280_pressure;Samples;Min_cycle;Max_cycle;Signal;HPM_P1;HPM_P2
2023/04/07 00:02:11;;;;;;;;;;;;;;;4.50;100.00;95791.06;5124489;27;20041;-78
2023/04/07 00:04:37;;;;;;;;;;;;;;;4.53;100.00;95791.78;5110398;28;19924;-78
2023/04/07 00:07:04;;;;;;;;;;;;;;;4.52;100.00;95791.81;5114496;27;19928;-78
2023/04/07 00:09:30;;;;;;;;;;;;;;;4.48;100.00;95792.81;5119731;27;20421;-78
2023/04/07 00:11:56;;;;;;;;;;;;;;;4.47;100.00;95792.00;5101642;28;19924;-79
2023/04/07 00:14:24;;;;;;;;;;;;;;;4.49;100.00;95795.34;5119152;27;19923;-78
2023/04/07 00:16:50;;;;;;;;;;;;;;;4.58;100.00;95794.16;5122060;27;19929;-78
2023/04/07 00:19:16;;;;;;;;;;;;;;;4.51;100.00;95790.16;5123628;27;19931;-78
2023/04/07 00:21:43;;;;;;;;;;;;;;;4.53;100.00;95790.94;5117648;27;19931;-78
2023/04/07 00:24:09;;;;;;;;;;;;;;;4.51;100.00;95787.59;5110613;27;19963;-78
2023/04/07 00:26:35;;;;;;;;;;;;;;;4.40;100.00;95788.00;5125222;27;19923;-77
2023/04/07 00:29:02;;;;;;;;;;;;;;;4.49;100.00;95789.38;5116996;27;19924;-78
2023/04/07 00:31:29;;;;;;;;;;;;;;;4.41;100.00;95781.97;5108520;27;19932;-76
2023/04/07 00:33:56;;;;;;;;;;;;;;;4.42;100.00;95783.66;5110121;27;19931;-76
2023/04/07 00:36:22;;;;;;;;;;;;;;;4.53;100.00;95785.81;5123111;27;19924;-79
2023/04/07 00:38:49;;;;;;;;;;;;;;;4.45;100.00;95778.41;5108147;27;19923;-78
2023/04/07 00:41:15;;;;;;;;;;;;;;;4.38;100.00;95771.84;5114918;27;20386;-76
2023/04/07 00:43:42;;;;;;;;;;;;;;;4.42;100.00;95772.56;5111279;27;19946;-77
2023/04/07 00:46:08;;;;;;;;;;;;;;;4.42;100.00;95772.56;5117246;27;19930;-77
2023/04/07 00:48:36;;;;;;;;;;;;;;;4.55;100.00;95755.78;5119453;27;20683;-76
2023/04/07 00:51:03;;;;;;;;;;;;;;;4.60;100.00;95752.16;5121341;27;19927;-77
2023/04/07 00:53:30;;;;;;;;;;;;;;;4.58;100.00;95750.53;5116561;27;19950;-78
2023/04/07 00:55:56;;;;;;;;;;;;;;;4.56;100.00;95750.63;5112264;27;19923;-77
2023/04/07 00:58:22;;;;;;;;;;;;;;;4.65;100.00;95744.28;5117733;27;19924;-77
2023/04/07 01:00:51;;;;;;;;;;;;;;;4.54;100.00;95741.31;5120800;27;19923;-77
2023/04/07 01:03:19;;;;;;;;;;;;;;;4.57;100.00;95728.38;5117833;27;20382;-78
2023/04/07 01:05:50;;;;;;;;;;;;;;;4.52;100.00;95732.81;5120700;27;19931;-78
2023/04/07 01:08:20;;;;;;;;;;;;;;;4.53;100.00;95732.78;5109965;27;19924;-77
2023/04/07 01:10:50;;;;;;;;;;;;;;;4.62;100.00;95729.00;5120447;27;19923;-77
2023/04/07 01:13:22;;;;;;;;;;;;;;;4.71;100.00;95730.34;5116840;27;19924;-78
2023/04/07 01:15:55;;;;;;;;;;;;;;;4.76;100.00;95725.88;5114280;27;20458;-78
2023/04/07 01:18:22;;;;;;;;;;;;;;;4.84;100.00;95721.28;5120214;27;19924;-77
2023/04/07 01:20:51;;;;;;;;;;;;;;;4.78;100.00;95718.94;5120041;27;20412;-77
2023/04/07 01:23:22;;;;;;;;;;;;;;;4.55;100.00;95717.31;5114989;27;19962;-77
2023/04/07 01:25:59;;;;;;;;;;;;;;;4.52;100.00;95715.69;5119665;27;19971;-78
2023/04/07 01:28:41;;;;;;;;;;;;;;;4.57;100.00;95712.97;5112335;27;20298;-78
2023/04/07 01:31:09;;;;;;;;;;;;;;;4.52;100.00;95707.19;5122600;27;19924;-77
2023/04/07 01:33:37;;;;;;;;;;;;;;;4.54;100.00;95713.09;5120273;27;19931;-77
2023/04/07 01:36:05;;;;;;;;;;;;;;;4.57;100.00;95711.25;5125539;27;19924;-76
2023/04/07 01:38:31;;;;;;;;;;;;;;;4.58;100.00;95707.78;5124313;27;20370;-77
2023/04/07 01:40:58;;;;;;;;;;;;;;;4.48;100.00;95709.03;5109854;27;19931;-76
2023/04/07 01:43:25;;;;;;;;;;;;;;;4.53;100.00;95707.13;5111472;27;19927;-77
2023/04/07 01:45:52;;;;;;;;;;;;;;;4.48;100.00;95693.63;5114516;27;19977;-78
2023/04/07 01:48:20;;;;;;;;;;;;;;;4.58;100.00;95697.50;5121459;27;19924;-77
2023/04/07 01:50:46;;;;;;;;;;;;;;;4.64;100.00;95690.47;5120643;27;19923;-78
2023/04/07 01:53:14;;;;;;;;;;;;;;;4.58;100.00;95691.56;5121209;27;19947;-76
2023/04/07 01:55:41;;;;;;;;;;;;;;;4.56;100.00;95686.50;5117543;27;19928;-78
2023/04/07 01:58:07;;;;;;;;;;;;;;;4.51;100.00;95690.97;5116871;27;19924;-78
2023/04/07 02:00:34;;;;;;;;;;;;;;;4.59;100.00;95685.53;5126606;27;20289;-76
2023/04/07 02:03:05;;;;;;;;;;;;;;;4.58;100.00;95682.13;5117902;27;19974;-78
2023/04/07 02:05:35;;;;;;;;;;;;;;;4.63;100.00;95678.53;5126809;27;19924;-77
2023/04/07 02:08:03;;;;;;;;;;;;;;;4.64;100.00;95681.06;5109987;27;19924;-77
2023/04/07 02:10:32;;;;;;;;;;;;;;;4.69;100.00;95684.25;5115544;27;19927;-78
2023/04/07 02:12:59;;;;;;;;;;;;;;;4.69;100.00;95680.84;5110288;27;19930;-77
2023/04/07 02:15:26;;;;;;;;;;;;;;;4.65;100.00;95679.31;5109115;28;19930;-76
2023/04/07 02:17:54;;;;;;;;;;;;;;;4.74;100.00;95681.50;5111485;27;19930;-77
2023/04/07 02:20:21;;;;;;;;;;;;;;;4.73;100.00;95680.66;5117678;28;19924;-76
2023/04/07 02:22:49;;;;;;;;;;;;;;;4.79;100.00;95669.31;5097078;28;19924;-77
2023/04/07 02:25:22;;;;;;;;;;;;;;;4.87;100.00;95672.41;5101184;28;19964;-78
2023/04/07 02:27:49;;;;;;;;;;;;;;;4.84;100.00;95667.38;5122266;28;19923;-77
2023/04/07 02:30:15;;;;;;;;;;;;;;;4.85;100.00;95669.88;5114543;28;19971;-76
2023/04/07 02:32:41;;;;;;;;;;;;;;;4.76;100.00;95669.44;5118165;28;19930;-77
2023/04/07 02:35:08;;;;;;;;;;;;;;;4.66;100.00;95670.72;5117875;28;19931;-78
2023/04/07 02:37:34;;;;;;;;;;;;;;;4.59;100.00;95665.81;5117651;28;19924;-78
2023/04/07 02:40:02;;;;;;;;;;;;;;;4.53;100.00;95655.84;5118363;28;19923;-76
2023/04/07 02:42:28;;;;;;;;;;;;;;;4.48;100.00;95650.03;5110897;28;20414;-77
2023/04/07 02:44:55;;;;;;;;;;;;;;;4.48;100.00;95657.75;5118920;28;19935;-77
2023/04/07 02:47:21;;;;;;;;;;;;;;;4.45;100.00;95649.34;5114328;28;20382;-77
2023/04/07 02:49:48;;;;;;;;;;;;;;;4.47;100.00;95645.00;5120802;28;19931;-77
2023/04/07 02:52:14;;;;;;;;;;;;;;;4.36;100.00;95646.25;5123138;28;20405;-76
2023/04/07 02:54:40;;;;;;;;;;;;;;;4.38;100.00;95653.91;5120951;28;19928;-78
2023/04/07 02:57:08;;;;;;;;;;;;;;;4.37;100.00;95652.22;5111279;28;19924;-76
2023/04/07 02:59:34;;;;;;;;;;;;;;;4.44;100.00;95657.94;5104613;28;20351;-79
2023/04/07 03:02:01;;;;;;;;;;;;;;;4.41;100.00;95658.06;5113537;28;20394;-78
2023/04/07 03:04:27;;;;;;;;;;;;;;;4.45;100.00;95652.75;5114627;28;19924;-77
2023/04/07 03:06:55;;;;;;;;;;;;;;;4.42;100.00;95655.44;5108945;28;19932;-77
2023/04/07 03:09:21;;;;;;;;;;;;;;;4.55;100.00;95656.59;5115518;28;19923;-78
2023/04/07 03:11:48;;;;;;;;;;;;;;;4.63;100.00;95651.16;5104181;28;19924;-77
2023/04/07 03:14:16;;;;;;;;;;;;;;;4.71;100.00;95641.44;5120009;28;19924;-76
2023/04/07 03:16:42;;;;;;;;;;;;;;;4.80;100.00;95641.03;5106161;28;19969;-76
2023/04/07 03:19:08;;;;;;;;;;;;;;;4.84;100.00;95631.47;5116318;28;19931;-76
2023/04/07 03:21:35;;;;;;;;;;;;;;;4.76;100.00;95628.41;5124887;28;19958;-78
2023/04/07 03:24:02;;;;;;;;;;;;;;;4.76;100.00;95636.09;5101030;28;19932;-77
2023/04/07 03:26:28;;;;;;;;;;;;;;;4.63;100.00;95625.50;5115847;28;20344;-77
2023/04/07 03:28:54;;;;;;;;;;;;;;;4.62;100.00;95626.41;5098809;28;19928;-77
2023/04/07 03:31:22;;;;;;;;;;;;;;;4.62;100.00;95623.84;5124505;27;20018;-77
2023/04/07 03:33:49;;;;;;;;;;;;;;;4.61;100.00;95628.13;5118550;27;19924;-78
2023/04/07 03:36:16;;;;;;;;;;;;;;;4.66;100.00;95624.53;5127563;27;19924;-78
2023/04/07 03:38:42;;;;;;;;;;;;;;;4.73;100.00;95631.09;5120514;27;19924;-76
2023/04/07 03:41:09;;;;;;;;;;;;;;;4.58;100.00;95628.25;5115071;27;19924;-78
2023/04/07 03:43:35;;;;;;;;;;;;;;;4.58;100.00;95623.13;5119663;27;20382;-76
2023/04/07 03:46:02;;;;;;;;;;;;;;;4.57;100.00;95631.72;5110871;27;19924;-78
2023/04/07 03:48:30;;;;;;;;;;;;;;;4.51;100.00;95629.41;5117134;27;19927;-76
2023/04/07 03:50:56;;;;;;;;;;;;;;;4.40;100.00;95628.19;5118740;27;19927;-77
2023/04/07 03:53:22;;;;;;;;;;;;;;;4.33;100.00;95620.72;5128728;27;19924;-77
2023/04/07 03:55:49;;;;;;;;;;;;;;;4.36;100.00;95615.47;5125933;27;19930;-76
2023/04/07 03:58:15;;;;;;;;;;;;;;;4.33;100.00;95605.34;5118024;27;19924;-77
2023/04/07 04:00:42;;;;;;;;;;;;;;;4.27;100.00;95610.75;5121799;27;20413;-76
2023/04/07 04:03:08;;;;;;;;;;;;;;;4.32;100.00;95613.13;5118803;27;19924;-76
2023/04/07 04:05:36;;;;;;;;;;;;;;;4.30;100.00;95608.06;5128095;27;19947;-79
2023/04/07 04:08:02;;;;;;;;;;;;;;;4.33;100.00;95609.66;5108538;27;20397;-76
2023/04/07 04:10:28;;;;;;;;;;;;;;;4.29;100.00;95608.94;5124450;27;19962;-78
2023/04/07 04:12:54;;;;;;;;;;;;;;;4.24;100.00;95612.59;5118548;27;19927;-79
2023/04/07 04:15:21;;;;;;;;;;;;;;;4.36;100.00;95610.34;5127036;27;19924;-78
2023/04/07 04:17:47;;;;;;;;;;;;;;;4.41;100.00;95607.59;5111401;27;20274;-76
2023/04/07 04:20:13;;;;;;;;;;;;;;;4.38;100.00;95604.34;5124036;27;19928;-78
2023/04/07 04:22:41;;;;;;;;;;;;;;;4.35;100.00;95603.56;5117534;27;19927;-77
2023/04/07 04:25:08;;;;;;;;;;;;;;;4.35;100.00;95607.88;5108201;27;19928;-77
2023/04/07 04:27:34;;;;;;;;;;;;;;;4.32;100.00;95610.56;5117011;27;19924;-76
2023/04/07 04:30:00;;;;;;;;;;;;;;;4.30;100.00;95610.63;5120463;27;20289;-77
2023/04/07 04:32:26;;;;;;;;;;;;;;;4.31;100.00;95611.47;5121398;27;19928;-76
2023/04/07 04:34:53;;;;;;;;;;;;;;;4.15;100.00;95602.69;5117510;27;19923;-76
2023/04/07 04:37:19;;;;;;;;;;;;;;;4.12;100.00;95613.94;5119975;27;19924;-77
2023/04/07 04:39:47;;;;;;;;;;;;;;;4.15;100.00;95610.38;5121189;27;19931;-77
2023/04/07 04:42:13;;;;;;;;;;;;;;;4.15;100.00;95605.25;5113796;27;20555;-77
2023/04/07 04:44:39;;;;;;;;;;;;;;;4.18;100.00;95608.53;5112219;27;20738;-77
2023/04/07 04:47:06;;;;;;;;;;;;;;;4.17;100.00;95608.63;5120514;27;19930;-77
2023/04/07 04:49:32;;;;;;;;;;;;;;;4.11;100.00;95610.50;5115910;27;20377;-76
2023/04/07 04:51:58;;;;;;;;;;;;;;;4.22;100.00;95604.13;5120442;27;19924;-77
2023/04/07 04:54:24;;;;;;;;;;;;;;;4.18;100.00;95598.28;5106571;27;19931;-76
2023/04/07 04:56:52;;;;;;;;;;;;;;;4.19;100.00;95604.25;5126357;27;19931;-75
2023/04/07 04:59:18;;;;;;;;;;;;;;;4.23;100.00;95604.06;5110960;27;19924;-75
2023/04/07 05:01:45;;;;;;;;;;;;;;;4.17;100.00;95604.31;5117924;27;19928;-78
2023/04/07 05:04:11;;;;;;;;;;;;;;;4.27;100.00;95603.06;5120267;27;19968;-75
2023/04/07 05:06:38;;;;;;;;;;;;;;;4.28;100.00;95601.31;5108060;28;19936;-76
2023/04/07 05:09:04;;;;;;;;;;;;;;;4.28;100.00;95598.75;5108624;28;19944;-76
2023/04/07 05:11:30;;;;;;;;;;;;;;;4.27;100.00;95607.34;5116321;27;19932;-78
2023/04/07 05:13:58;;;;;;;;;;;;;;;4.33;100.00;95599.38;5123714;27;20152;-78
2023/04/07 05:16:24;;;;;;;;;;;;;;;4.39;100.00;95613.72;5108686;27;20373;-78
2023/04/07 05:18:51;;;;;;;;;;;;;;;4.40;100.00;95607.66;5113422;27;19930;-77
2023/04/07 05:21:19;;;;;;;;;;;;;;;4.38;100.00;95614.59;5119677;27;20322;-77
2023/04/07 05:23:45;;;;;;;;;;;;;;;4.43;100.00;95616.06;5104546;27;19928;-78
2023/04/07 05:26:11;;;;;;;;;;;;;;;4.45;100.00;95614.28;5110691;27;19924;-77
2023/04/07 05:28:37;;;;;;;;;;;;;;;4.48;100.00;95608.19;5108519;27;19928;-77
2023/04/07 05:31:05;;;;;;;;;;;;;;;4.56;100.00;95608.69;5123204;27;19932;-76
2023/04/07 05:33:33;;;;;;;;;;;;;;;4.61;100.00;95610.19;5109583;27;20407;-77
2023/04/07 05:35:59;;;;;;;;;;;;;;;4.70;100.00;95608.13;5117472;27;19977;-78
2023/04/07 05:38:25;;;;;;;;;;;;;;;4.64;100.00;95613.53;5114293;27;19923;-77
2023/04/07 05:40:52;;;;;;;;;;;;;;;4.69;100.00;95616.72;5098621;28;19951;-77
2023/04/07 05:43:18;;;;;;;;;;;;;;;4.66;100.00;95620.25;5109477;27;20290;-77
2023/04/07 05:45:44;;;;;;;;;;;;;;;4.67;100.00;95616.78;5112764;27;19935;-78
2023/04/07 05:48:12;;;;;;;;;;;;;;;4.59;100.00;95616.25;5118739;27;20302;-76
2023/04/07 05:50:38;;;;;;;;;;;;;;;4.58;100.00;95620.56;5110335;27;19923;-76
2023/04/07 05:53:04;;;;;;;;;;;;;;;4.61;100.00;95617.03;5111543;27;19928;-78
2023/04/07 05:55:31;;;;;;;;;;;;;;;4.69;100.00;95619.28;5098531;27;19924;-77
2023/04/07 05:57:57;;;;;;;;;;;;;;;4.72;100.00;95619.16;5118566;27;19928;-77
2023/04/07 06:00:23;;;;;;;;;;;;;;;4.64;100.00;95613.53;5119736;27;20020;-78
2023/04/07 06:02:50;;;;;;;;;;;;;;;4.77;100.00;95617.22;5119048;27;20007;-78
2023/04/07 06:05:18;;;;;;;;;;;;;;;4.74;100.00;95614.78;5123658;27;19923;-77
2023/04/07 06:07:44;;;;;;;;;;;;;;;4.78;100.00;95621.44;5114578;28;20454;-77
2023/04/07 06:10:10;;;;;;;;;;;;;;;4.78;100.00;95622.31;5122895;27;20340;-71
2023/04/07 06:12:37;;;;;;;;;;;;;;;4.86;100.00;95616.84;5122582;28;19924;-76
2023/04/07 06:15:03;;;;;;;;;;;;;;;4.85;100.00;95613.44;5113685;28;19924;-76
2023/04/07 06:17:30;;;;;;;;;;;;;;;4.86;100.00;95619.41;5119035;28;19928;-76
2023/04/07 06:19:56;;;;;;;;;;;;;;;4.89;100.00;95613.31;5116263;28;19924;-77
2023/04/07 06:22:23;;;;;;;;;;;;;;;4.90;100.00;95620.13;5125317;28;19927;-77
2023/04/07 06:24:50;;;;;;;;;;;;;;;4.89;100.00;95619.25;5122534;28;19928;-80
2023/04/07 06:27:17;;;;;;;;;;;;;;;4.81;100.00;95611.88;5119631;28;19924;-79
2023/04/07 06:29:43;;;;;;;;;;;;;;;4.84;100.00;95621.19;5116019;28;19924;-72
2023/04/07 06:32:10;;;;;;;;;;;;;;;4.73;100.00;95610.56;5114536;28;19939;-71
2023/04/07 06:34:36;;;;;;;;;;;;;;;4.76;100.00;95618.13;5116569;28;19923;-73
2023/04/07 06:37:04;;;;;;;;;;;;;;;4.93;100.00;95609.69;5113933;28;19924;-78
2023/04/07 06:39:31;;;;;;;;;;;;;;;4.92;100.00;95613.19;5111444;28;19923;-78
2023/04/07 06:41:58;;;;;;;;;;;;;;;5.03;100.00;95619.50;5096672;28;19932;-77
2023/04/07 06:44:24;;;;;;;;;;;;;;;5.28;100.00;95621.84;5115631;28;20300;-77
2023/04/07 06:46:52;;;;;;;;;;;;;;;5.39;100.00;95613.66;5116384;28;19927;-76
2023/04/07 06:49:18;;;;;;;;;;;;;;;5.56;100.00;95612.88;5111601;28;19993;-77
2023/04/07 06:51:44;;;;;;;;;;;;;;;5.63;100.00;95618.59;5120874;28;19934;-77
2023/04/07 06:54:12;;;;;;;;;;;;;;;5.76;100.00;95620.53;5120581;28;19931;-76
2023/04/07 06:56:40;;;;;;;;;;;;;;;5.78;100.00;95618.72;5116176;28;20369;-77
2023/04/07 06:59:06;;;;;;;;;;;;;;;6.03;100.00;95625.31;5117479;27;19966;-77
2023/04/07 07:01:33;;;;;;;;;;;;;;;6.24;100.00;95613.19;5111469;28;19923;-77
2023/04/07 07:04:00;;;;;;;;;;;;;;;6.35;100.00;95616.06;5121283;27;19928;-76
2023/04/07 07:06:26;;;;;;;;;;;;;;;6.49;100.00;95621.38;5106912;27;19977;-76
2023/04/07 07:08:53;;;;;;;;;;;;;;;6.62;100.00;95613.03;5118670;27;19946;-76
2023/04/07 07:11:19;;;;;;;;;;;;;;;6.86;100.00;95616.97;5126027;27;20385;-76
2023/04/07 07:13:47;;;;;;;;;;;;;;;7.24;100.00;95617.56;5121240;27;19924;-76
2023/04/07 07:16:13;;;;;;;;;;;;;;;7.70;100.00;95615.13;5120938;27;19932;-76
2023/04/07 07:18:39;;;;;;;;;;;;;;;8.12;100.00;95615.44;5124550;27;20549;-76
2023/04/07 07:21:06;;;;;;;;;;;;;;;8.48;100.00;95610.81;5119226;27;19923;-77
2023/04/07 07:23:33;;;;;;;;;;;;;;;8.60;100.00;95616.19;5114548;27;19973;-77
2023/04/07 07:25:59;;;;;;;;;;;;;;;8.67;100.00;95617.50;5119188;27;19927;-77
2023/04/07 07:28:27;;;;;;;;;;;;;;;8.93;100.00;95618.56;5115558;27;19929;-77
2023/04/07 07:30:55;;;;;;;;;;;;;;;9.04;100.00;95621.34;5111770;27;19931;-78
2023/04/07 07:33:21;;;;;;;;;;;;;;;9.06;100.00;95616.13;5115887;27;19930;-78
2023/04/07 07:35:48;;;;;;;;;;;;;;;8.75;100.00;95619.66;5109511;27;20347;-78
2023/04/07 07:38:14;;;;;;;;;;;;;;;8.25;100.00;95612.09;5116445;27;20324;-77
2023/04/07 07:40:40;;;;;;;;;;;;;;;8.43;100.00;95615.41;5101526;27;19967;-76
2023/04/07 07:43:06;;;;;;;;;;;;;;;8.83;100.00;95618.31;5112281;27;20394;-77
2023/04/07 07:45:33;;;;;;;;;;;;;;;8.88;100.00;95611.09;5099324;28;19924;-77
2023/04/07 07:48:00;;;;;;;;;;;;;;;9.16;100.00;95617.25;5114909;28;19927;-77
2023/04/07 07:50:27;;;;;;;;;;;;;;;9.61;100.00;95615.38;5110270;27;19923;-76
2023/04/07 07:52:53;;;;;;;;;;;;;;;9.98;100.00;95621.69;5113410;27;19924;-77
2023/04/07 07:55:19;;;;;;;;;;;;;;;10.28;100.00;95615.53;5122623;27;20676;-76
2023/04/07 07:57:46;;;;;;;;;;;;;;;10.62;100.00;95622.75;5120787;27;19923;-78
2023/04/07 08:00:12;;;;;;;;;;;;;;;10.74;100.00;95615.13;5117996;27;19947;-77
2023/04/07 08:02:39;;;;;;;;;;;;;;;10.65;100.00;95611.38;5120388;27;19928;-76
2023/04/07 08:05:07;;;;;;;;;;;;;;;11.01;100.00;95620.22;5111272;27;19939;-77
2023/04/07 08:07:33;;;;;;;;;;;;;;;11.34;100.00;95620.53;5108684;27;19923;-75
2023/04/07 08:09:59;;;;;;;;;;;;;;;11.32;100.00;95619.81;5114698;27;19928;-77
2023/04/07 08:12:26;;;;;;;;;;;;;;;11.23;100.00;95625.63;5111040;27;19929;-76
2023/04/07 08:14:52;;;;;;;;;;;;;;;10.42;100.00;95618.06;5122097;27;19923;-78
2023/04/07 08:17:18;;;;;;;;;;;;;;;10.71;100.00;95621.31;5105729;27;19932;-78
2023/04/07 08:19:45;;;;;;;;;;;;;;;10.11;100.00;95621.72;5126131;27;19928;-78
2023/04/07 08:22:12;;;;;;;;;;;;;;;9.41;100.00;95625.16;5117340;27;19924;-77
2023/04/07 08:24:38;;;;;;;;;;;;;;;9.29;100.00;95623.31;5123134;27;19927;-77
2023/04/07 08:27:05;;;;;;;;;;;;;;;9.23;100.00;95625.44;5102553;27;19934;-76
2023/04/07 08:29:31;;;;;;;;;;;;;;;9.07;100.00;95628.94;5113930;27;19927;-76
2023/04/07 08:31:57;;;;;;;;;;;;;;;8.93;100.00;95626.31;5116037;27;20389;-77
2023/04/07 08:34:24;;;;;;;;;;;;;;;8.73;100.00;95635.25;5118021;27;19930;-75
2023/04/07 08:36:50;;;;;;;;;;;;;;;8.83;100.00;95632.97;5116983;27;20412;-77
2023/04/07 08:39:18;;;;;;;;;;;;;;;8.85;100.00;95637.09;5111384;27;19924;-78
2023/04/07 08:41:44;;;;;;;;;;;;;;;8.55;100.00;95641.44;5111868;27;19927;-74
2023/04/07 08:44:11;;;;;;;;;;;;;;;8.60;100.00;95636.84;5110721;27;19957;-77
2023/04/07 08:46:38;;;;;;;;;;;;;;;8.58;100.00;95639.53;5122785;27;19923;-78
2023/04/07 08:49:07;;;;;;;;;;;;;;;8.57;100.00;95631.88;5120298;27;19935;-77
2023/04/07 08:51:34;;;;;;;;;;;;;;;8.70;100.00;95638.81;5112216;27;19923;-78
2023/04/07 08:54:05;;;;;;;;;;;;;;;8.63;100.00;95637.50;5106310;27;19930;-78
2023/04/07 08:56:33;;;;;;;;;;;;;;;8.57;100.00;95637.06;5119166;27;19972;-77
2023/04/07 08:59:00;;;;;;;;;;;;;;;8.66;100.00;95637.34;5117612;27;19927;-78
2023/04/07 09:01:27;;;;;;;;;;;;;;;8.67;100.00;95636.41;5115763;27;19924;-78
2023/04/07 09:03:53;;;;;;;;;;;;;;;8.73;100.00;95645.56;5116472;27;19923;-77
2023/04/07 09:06:20;;;;;;;;;;;;;;;8.73;100.00;95640.41;5115108;27;19932;-76
2023/04/07 09:08:46;;;;;;;;;;;;;;;8.81;100.00;95643.38;5105758;27;19930;-76
2023/04/07 09:11:13;;;;;;;;;;;;;;;8.96;100.00;95645.06;5116654;27;20454;-78
2023/04/07 09:13:40;;;;;;;;;;;;;;;9.02;100.00;95650.81;5112082;27;19928;-78
2023/04/07 09:16:07;;;;;;;;;;;;;;;9.06;100.00;95652.28;5121341;27;19935;-77
2023/04/07 09:18:33;;;;;;;;;;;;;;;9.37;100.00;95651.28;5119659;27;19924;-76
2023/04/07 09:21:01;;;;;;;;;;;;;;;9.30;100.00;95653.41;5113993;27;19934;-76
2023/04/07 09:23:29;;;;;;;;;;;;;;;9.07;100.00;95656.53;5114507;27;19924;-78
2023/04/07 09:25:55;;;;;;;;;;;;;;;9.00;100.00;95650.06;5122130;27;19923;-78
2023/04/07 09:28:22;;;;;;;;;;;;;;;8.92;100.00;95656.50;5119967;27;19924;-77
2023/04/07 09:30:54;;;;;;;;;;;;;;;8.82;100.00;95650.19;5125196;27;19923;-76
2023/04/07 09:33:26;;;;;;;;;;;;;;;8.82;100.00;95654.53;5126216;27;19965;-78
2023/04/07 09:35:53;;;;;;;;;;;;;;;8.77;100.00;95656.56;5125017;27;19924;-79
2023/04/07 09:38:19;;;;;;;;;;;;;;;8.86;100.00;95659.44;5118408;27;19973;-77
2023/04/07 09:40:47;;;;;;;;;;;;;;;8.81;100.00;95663.19;5111764;28;20294;-79
2023/04/07 09:43:15;;;;;;;;;;;;;;;8.78;100.00;95661.63;5127034;27;19975;-79
2023/04/07 09:45:41;;;;;;;;;;;;;;;8.80;100.00;95657.22;5115519;27;19924;-78
2023/04/07 09:48:18;;;;;;;;;;;;;;;8.89;100.00;95661.81;5119154;27;20344;-80
2023/04/07 09:50:48;;;;;;;;;;;;;;;8.85;100.00;95662.09;5115563;27;19970;-78
2023/04/07 09:53:15;;;;;;;;;;;;;;;9.13;100.00;95653.59;5123332;27;20366;-76
2023/04/07 09:55:42;;;;;;;;;;;;;;;9.01;100.00;95659.44;5128176;27;20457;-80
2023/04/07 09:58:09;;;;;;;;;;;;;;;9.00;100.00;95660.38;5125029;27;19930;-78
2023/04/07 10:00:35;;;;;;;;;;;;;;;9.17;100.00;95655.91;5126906;27;19924;-79
2023/04/07 10:03:03;;;;;;;;;;;;;;;9.36;100.00;95657.38;5124627;27;20028;-80
2023/04/07 10:05:31;;;;;;;;;;;;;;;9.53;100.00;95662.38;5120029;27;19932;-77
2023/04/07 10:07:57;;;;;;;;;;;;;;;9.55;100.00;95663.09;5098930;27;19924;-78
2023/04/07 10:10:24;;;;;;;;;;;;;;;9.52;100.00;95659.88;5126319;27;19931;-79
2023/04/07 10:12:52;;;;;;;;;;;;;;;9.63;100.00;95655.72;5108675;27;20294;-77
2023/04/07 10:15:19;;;;;;;;;;;;;;;9.62;100.00;95655.81;5119646;27;19954;-77
2023/04/07 10:17:46;;;;;;;;;;;;;;;9.53;100.00;95653.78;5116367;28;19930;-76
2023/04/07 10:20:13;;;;;;;;;;;;;;;9.77;100.00;95657.47;5119620;27;19978;-75
2023/04/07 10:22:42;;;;;;;;;;;;;;;9.88;100.00;95654.22;5115431;28;20297;-76
2023/04/07 10:25:10;;;;;;;;;;;;;;;9.69;100.00;95652.75;5102500;28;20390;-76
2023/04/07 10:27:38;;;;;;;;;;;;;;;9.77;100.00;95656.63;5119617;28;20385;-76
2023/04/07 10:30:07;;;;;;;;;;;;;;;10.19;99.93;95653.13;5115452;28;19928;-76
2023/04/07 10:32:45;;;;;;;;;;;;;;;10.21;100.00;95653.88;5107446;28;19931;-77
2023/04/07 10:35:11;;;;;;;;;;;;;;;9.96;100.00;95648.56;5111857;28;19928;-76
2023/04/07 10:37:38;;;;;;;;;;;;;;;10.43;100.00;95655.13;5112729;28;19931;-76
2023/04/07 10:40:26;;;;;;;;;;;;;;;10.86;95.74;95651.44;5111108;27;19959;-75
2023/04/07 10:42:55;;;;;;;;;;;;;;;10.64;92.06;95645.97;5118407;27;19923;-75
2023/04/07 10:45:36;;;;;;;;;;;;;;;10.82;87.36;95647.34;5107380;27;19924;-77
2023/04/07 10:48:10;;;;;;;;;;;;;;;10.91;84.76;95648.53;5109955;27;19928;-76
2023/04/07 10:50:36;;;;;;;;;;;;;;;10.53;78.07;95640.66;5113745;27;19924;-76
2023/04/07 10:53:07;;;;;;;;;;;;;;;10.30;81.06;95648.13;5116896;27;19931;-76
2023/04/07 10:55:34;;;;;;;;;;;;;;;10.60;80.22;95642.75;5117567;27;20377;-77
2023/04/07 10:58:15;;;;;;;;;;;;;;;10.40;82.22;95640.63;5107832;27;19924;-76
2023/04/07 11:00:42;;;;;;;;;;;;;;;10.19;82.78;95642.78;5127329;27;19979;-76
2023/04/07 11:03:11;;;;;;;;;;;;;;;10.21;82.55;95643.53;5117347;27;19924;-76
2023/04/07 11:05:38;;;;;;;;;;;;;;;10.39;81.76;95654.50;5111115;27;19931;-76
2023/04/07 11:08:05;;;;;;;;;;;;;;;10.30;85.62;95648.13;5105731;27;19981;-75
2023/04/07 11:10:31;;;;;;;;;;;;;;;10.05;91.00;95650.56;5119428;27;19927;-76
2023/04/07 11:12:59;;;;;;;;;;;;;;;9.79;91.42;95645.28;5108851;27;19931;-76
2023/04/07 11:15:27;;;;;;;;;;;;;;;9.64;92.91;95648.78;5131233;27;20335;-75
2023/04/07 11:18:12;;;;;;;;;;;;;;;9.58;90.58;95646.59;5106446;27;20018;-76
2023/04/07 11:20:42;;;;;;;;;;;;;;;9.57;91.17;95650.09;5114508;27;19924;-76
2023/04/07 11:23:08;;;;;;;;;;;;;;;9.69;90.68;95657.94;5112354;27;19930;-76
2023/04/07 11:25:35;;;;;;;;;;;;;;;9.73;91.94;95653.41;5106831;27;20005;-77
2023/04/07 11:28:03;;;;;;;;;;;;;;;9.93;91.66;95647.81;5118900;27;19984;-75
2023/04/07 11:30:31;;;;;;;;;;;;;;;10.07;91.00;95659.06;5113183;27;19939;-75
2023/04/07 11:32:58;;;;;;;;;;;;;;;10.34;84.99;95653.94;5122894;27;20014;-76
2023/04/07 11:35:25;;;;;;;;;;;;;;;10.31;83.51;95651.56;5115239;27;19934;-76
2023/04/07 11:37:56;;;;;;;;;;;;;;;10.18;79.38;95654.88;5103902;28;19924;-75
2023/04/07 11:40:32;;;;;;;;;;;;;;;10.29;80.37;95656.00;5117241;27;19923;-75
2023/04/07 11:42:58;;;;;;;;;;;;;;;10.36;86.25;95660.69;5108075;27;19924;-75
2023/04/07 11:45:24;;;;;;;;;;;;;;;10.16;83.18;95655.94;5121814;27;20290;-75
2023/04/07 11:47:52;;;;;;;;;;;;;;;10.00;82.78;95665.56;5117935;27;19928;-75
2023/04/07 11:50:37;;;;;;;;;;;;;;;10.01;82.61;95655.13;5124807;27;20286;-75
2023/04/07 11:53:03;;;;;;;;;;;;;;;10.01;84.49;95655.13;5119132;27;19931;-75
2023/04/07 11:55:30;;;;;;;;;;;;;;;9.94;83.40;95661.63;5119861;27;19936;-74
2023/04/07 11:58:04;;;;;;;;;;;;;;;9.84;84.71;95666.50;5123371;27;20010;-75
2023/04/07 12:00:31;;;;;;;;;;;;;;;9.89;86.74;95663.63;5098995;27;19936;-75
2023/04/07 12:03:08;;;;;;;;;;;;;;;9.91;84.83;95669.56;5114775;27;19924;-75
2023/04/07 12:05:41;;;;;;;;;;;;;;;9.94;84.39;95666.78;5112588;27;19927;-75
2023/04/07 12:08:08;;;;;;;;;;;;;;;9.84;81.30;95670.84;5112061;27;19993;-75
2023/04/07 12:10:34;;;;;;;;;;;;;;;9.88;81.49;95672.31;5125946;27;19931;-75
2023/04/07 12:13:01;;;;;;;;;;;;;;;9.93;86.21;95678.03;5109150;27;19946;-75
2023/04/07 12:15:27;;;;;;;;;;;;;;;9.73;89.67;95676.69;5124724;27;19928;-75
2023/04/07 12:17:54;;;;;;;;;;;;;;;9.55;90.55;95672.63;5102533;27;19924;-76
2023/04/07 12:20:21;;;;;;;;;;;;;;;9.52;91.81;95677.97;5115087;27;19924;-75
2023/04/07 12:22:48;;;;;;;;;;;;;;;9.41;95.13;95682.03;5100718;28;20317;-76
2023/04/07 12:25:14;;;;;;;;;;;;;;;9.51;95.93;95681.50;5102796;27;19927;-74
2023/04/07 12:27:41;;;;;;;;;;;;;;;9.55;98.75;95688.13;5107889;28;20437;-73
2023/04/07 12:30:08;;;;;;;;;;;;;;;9.54;100.00;95687.31;5102611;28;20006;-74
2023/04/07 12:32:34;;;;;;;;;;;;;;;9.56;95.70;95688.03;5113537;27;20018;-74
2023/04/07 12:35:01;;;;;;;;;;;;;;;9.84;100.00;95694.13;5111380;27;19927;-73
2023/04/07 12:37:28;;;;;;;;;;;;;;;10.08;100.00;95694.38;5120169;27;19927;-74
2023/04/07 12:39:54;;;;;;;;;;;;;;;9.48;100.00;95692.84;5108312;27;19940;-74
2023/04/07 12:42:21;;;;;;;;;;;;;;;8.94;100.00;95692.59;5113062;27;19939;-74
2023/04/07 12:44:47;;;;;;;;;;;;;;;8.44;100.00;95691.09;5105108;27;19931;-74
2023/04/07 12:47:13;;;;;;;;;;;;;;;8.33;100.00;95690.81;5112956;27;19930;-74
2023/04/07 12:49:40;;;;;;;;;;;;;;;8.27;100.00;95686.00;5119696;27;20367;-74